createdAt,value
2023-04-22T00:00:00.000Z,42.2
2023-04-22T00:01:00.000Z,41.8
2023-04-22T00:03:00.000Z,40.5
2023-04-22T00:04:00.000Z,40.3
2023-04-22T00:05:00.000Z,40.2
2023-04-22T00:06:00.000Z,40.2
2023-04-22T00:08:00.000Z,41.0
2023-04-22T00:09:00.000Z,40.8
2023-04-22T00:10:00.000Z,40.4
2023-04-22T00:11:00.000Z,39.8
2023-04-22T00:13:00.000Z,39.7
2023-04-22T00:14:00.000Z,39.7
2023-04-22T00:15:00.000Z,39.6
2023-04-22T00:16:00.000Z,42.5
2023-04-22T00:18:00.000Z,42.7
2023-04-22T00:19:00.000Z,40.3
2023-04-22T00:20:00.000Z,39.8
2023-04-22T00:21:00.000Z,39.7
2023-04-22T00:23:00.000Z,39.4
2023-04-22T00:24:00.000Z,39.3
2023-04-22T00:25:00.000Z,39.0
2023-04-22T00:26:00.000Z,39.9
2023-04-22T00:27:00.000Z,40.9
2023-04-22T00:28:00.000Z,42.0
2023-04-22T00:29:00.000Z,40.6
2023-04-22T00:30:00.000Z,41.0
2023-04-22T00:31:00.000Z,39.3
2023-04-22T00:32:00.000Z,39.7
2023-04-22T00:33:00.000Z,38.9
2023-04-22T00:34:00.000Z,38.4
2023-04-22T00:35:00.000Z,38.2
2023-04-22T00:36:00.000Z,38.8
2023-04-22T00:37:00.000Z,39.0
2023-04-22T00:38:00.000Z,38.2
2023-04-22T00:39:00.000Z,38.7
2023-04-22T00:40:00.000Z,38.2
2023-04-22T00:41:00.000Z,38.8
2023-04-22T00:43:00.000Z,38.8
2023-04-22T00:44:00.000Z,38.5
2023-04-22T00:45:00.000Z,38.8
2023-04-22T00:46:00.000Z,38.0
2023-04-22T00:48:00.000Z,37.3
2023-04-22T00:49:00.000Z,38.0
2023-04-22T00:50:00.000Z,37.6
2023-04-22T00:51:00.000Z,37.7
2023-04-22T00:53:00.000Z,36.7
2023-04-22T00:54:00.000Z,36.8
2023-04-22T00:55:00.000Z,36.5
2023-04-22T00:56:00.000Z,36.5
2023-04-22T00:58:00.000Z,37.4
2023-04-22T00:59:00.000Z,37.0
2023-04-22T01:00:00.000Z,36.4
2023-04-22T01:01:00.000Z,36.8
2023-04-22T01:02:00.000Z,36.8
2023-04-22T01:03:00.000Z,36.5
2023-04-22T01:04:00.000Z,35.7
2023-04-22T01:05:00.000Z,35.1
2023-04-22T01:06:00.000Z,35.6
2023-04-22T01:08:00.000Z,33.1
2023-04-22T01:09:00.000Z,34.8
2023-04-22T01:10:00.000Z,35.8
2023-04-22T01:11:00.000Z,35.1
2023-04-22T01:12:00.000Z,35.0
2023-04-22T01:13:00.000Z,34.9
2023-04-22T01:14:00.000Z,34.7
2023-04-22T01:15:00.000Z,35.8
2023-04-22T01:16:00.000Z,35.7
2023-04-22T01:18:00.000Z,35.0
2023-04-22T01:19:00.000Z,35.2
2023-04-22T01:20:00.000Z,34.7
2023-04-22T01:21:00.000Z,34.5
2023-04-22T01:23:00.000Z,34.1
2023-04-22T01:24:00.000Z,34.5
2023-04-22T01:25:00.000Z,34.7
2023-04-22T01:26:00.000Z,34.8
2023-04-22T01:28:00.000Z,30.5
2023-04-22T01:29:00.000Z,31.7
2023-04-22T01:30:00.000Z,33.5
2023-04-22T01:31:00.000Z,34.5
2023-04-22T01:33:00.000Z,39.0
2023-04-22T01:34:00.000Z,39.1
2023-04-22T01:35:00.000Z,33.7
2023-04-22T01:36:00.000Z,33.4
2023-04-22T01:37:00.000Z,33.1
2023-04-22T01:38:00.000Z,32.7
2023-04-22T01:39:00.000Z,32.7
2023-04-22T01:40:00.000Z,30.6
2023-04-22T01:41:00.000Z,30.8
2023-04-22T01:42:00.000Z,32.6
2023-04-22T01:43:00.000Z,32.4
2023-04-22T01:44:00.000Z,32.5
2023-04-22T01:45:00.000Z,33.3
2023-04-22T01:46:00.000Z,34.2
2023-04-22T01:47:00.000Z,34.5
2023-04-22T01:48:00.000Z,34.1
2023-04-22T01:49:00.000Z,33.2
2023-04-22T01:50:00.000Z,33.6
2023-04-22T01:51:00.000Z,33.2
2023-04-22T01:52:00.000Z,34.1
2023-04-22T01:53:00.000Z,32.9
2023-04-22T01:54:00.000Z,33.6
2023-04-22T01:55:00.000Z,32.7
2023-04-22T01:56:00.000Z,31.9
2023-04-22T01:57:00.000Z,31.1
2023-04-22T01:58:00.000Z,31.2
2023-04-22T01:59:00.000Z,31.8
2023-04-22T02:00:00.000Z,29.6
2023-04-22T02:01:00.000Z,29.8
2023-04-22T02:02:00.000Z,31.3
2023-04-22T02:03:00.000Z,33.6
2023-04-22T02:04:00.000Z,33.5
2023-04-22T02:05:00.000Z,35.1
2023-04-22T02:06:00.000Z,34.4
2023-04-22T02:07:00.000Z,34.8
2023-04-22T02:08:00.000Z,33.8
2023-04-22T02:09:00.000Z,33.9
2023-04-22T02:10:00.000Z,33.9
2023-04-22T02:11:00.000Z,33.3
2023-04-22T02:12:00.000Z,32.9
2023-04-22T02:13:00.000Z,32.6
2023-04-22T02:14:00.000Z,33.9
2023-04-22T02:15:00.000Z,34.0
2023-04-22T02:16:00.000Z,31.8
2023-04-22T02:17:00.000Z,29.8
2023-04-22T02:18:00.000Z,31.1
2023-04-22T02:19:00.000Z,32.2
2023-04-22T02:20:00.000Z,33.3
2023-04-22T02:21:00.000Z,33.1
2023-04-22T02:22:00.000Z,31.7
2023-04-22T02:23:00.000Z,31.5
2023-04-22T02:24:00.000Z,32.4
2023-04-22T02:25:00.000Z,32.9
2023-04-22T02:26:00.000Z,32.9
2023-04-22T02:27:00.000Z,32.8
2023-04-22T02:28:00.000Z,31.7
2023-04-22T02:29:00.000Z,32.0
2023-04-22T02:30:00.000Z,31.5
2023-04-22T02:31:00.000Z,31.0
2023-04-22T02:32:00.000Z,31.2
2023-04-22T02:33:00.000Z,29.7
2023-04-22T02:34:00.000Z,29.7
2023-04-22T02:35:00.000Z,33.1
2023-04-22T02:36:00.000Z,33.3
2023-04-22T02:37:00.000Z,33.7
2023-04-22T02:38:00.000Z,31.7
2023-04-22T02:39:00.000Z,34.3
2023-04-22T02:40:00.000Z,34.4
2023-04-22T02:41:00.000Z,34.6
2023-04-22T02:42:00.000Z,32.3
2023-04-22T02:43:00.000Z,31.9
2023-04-22T02:44:00.000Z,30.2
2023-04-22T02:45:00.000Z,28.8
2023-04-22T02:46:00.000Z,29.9
2023-04-22T02:47:00.000Z,31.4
2023-04-22T02:48:00.000Z,32.5
2023-04-22T02:49:00.000Z,32.3
2023-04-22T02:50:00.000Z,32.8
2023-04-22T02:51:00.000Z,32.6
2023-04-22T02:52:00.000Z,32.3
2023-04-22T02:53:00.000Z,31.3
2023-04-22T02:54:00.000Z,30.6
2023-04-22T02:55:00.000Z,30.3
2023-04-22T02:56:00.000Z,30.1
2023-04-22T02:57:00.000Z,30.1
2023-04-22T02:58:00.000Z,28.1
2023-04-22T02:59:00.000Z,27.8
2023-04-22T03:00:00.000Z,29.6
2023-04-22T03:01:00.000Z,30.5
2023-04-22T03:02:00.000Z,31.2
2023-04-22T03:03:00.000Z,30.9
2023-04-22T03:04:00.000Z,31.1
2023-04-22T03:05:00.000Z,31.9
2023-04-22T03:06:00.000Z,31.9
2023-04-22T03:07:00.000Z,32.3
2023-04-22T03:08:00.000Z,30.0
2023-04-22T03:09:00.000Z,28.3
2023-04-22T03:10:00.000Z,28.8
2023-04-22T03:11:00.000Z,29.8
2023-04-22T03:12:00.000Z,31.0
2023-04-22T03:13:00.000Z,31.6
2023-04-22T03:14:00.000Z,32.8
2023-04-22T03:15:00.000Z,31.9
2023-04-22T03:16:00.000Z,32.3
2023-04-22T03:17:00.000Z,31.3
2023-04-22T03:18:00.000Z,31.6
2023-04-22T03:19:00.000Z,30.5
2023-04-22T03:20:00.000Z,30.0
2023-04-22T03:21:00.000Z,30.1
2023-04-22T03:22:00.000Z,30.4
2023-04-22T03:23:00.000Z,31.1
2023-04-22T03:24:00.000Z,30.7
2023-04-22T03:25:00.000Z,30.5
2023-04-22T03:26:00.000Z,30.5
2023-04-22T03:27:00.000Z,29.7
2023-04-22T03:28:00.000Z,30.6
2023-04-22T03:29:00.000Z,30.6
2023-04-22T03:30:00.000Z,30.2
2023-04-22T03:31:00.000Z,28.8
2023-04-22T03:32:00.000Z,29.0
2023-04-22T03:33:00.000Z,27.1
2023-04-22T03:34:00.000Z,26.6
2023-04-22T03:35:00.000Z,27.7
2023-04-22T03:36:00.000Z,29.2
2023-04-22T03:37:00.000Z,29.1
2023-04-22T03:38:00.000Z,29.5
2023-04-22T03:39:00.000Z,29.7
2023-04-22T03:40:00.000Z,29.5
2023-04-22T03:41:00.000Z,29.3
2023-04-22T03:42:00.000Z,29.1
2023-04-22T03:43:00.000Z,28.0
2023-04-22T03:44:00.000Z,27.5
2023-04-22T03:45:00.000Z,28.2
2023-04-22T03:46:00.000Z,28.7
2023-04-22T03:47:00.000Z,30.2
2023-04-22T03:48:00.000Z,30.4
2023-04-22T03:49:00.000Z,30.1
2023-04-22T03:50:00.000Z,29.8
2023-04-22T03:51:00.000Z,30.7
2023-04-22T03:52:00.000Z,31.8
2023-04-22T03:53:00.000Z,31.6
2023-04-22T03:54:00.000Z,31.7
2023-04-22T03:55:00.000Z,30.2
2023-04-22T03:56:00.000Z,31.3
2023-04-22T03:57:00.000Z,30.6
2023-04-22T03:58:00.000Z,30.7
2023-04-22T03:59:00.000Z,28.3
2023-04-22T04:00:00.000Z,27.2
2023-04-22T04:01:00.000Z,26.7
2023-04-22T04:02:00.000Z,27.0
2023-04-22T04:03:00.000Z,27.7
2023-04-22T04:04:00.000Z,28.0
2023-04-22T04:05:00.000Z,28.0
2023-04-22T04:06:00.000Z,29.2
2023-04-22T04:07:00.000Z,29.1
2023-04-22T04:08:00.000Z,29.9
2023-04-22T04:09:00.000Z,30.3
2023-04-22T04:10:00.000Z,30.2
2023-04-22T04:11:00.000Z,29.6
2023-04-22T04:13:00.000Z,26.8
2023-04-22T04:14:00.000Z,26.7
2023-04-22T04:15:00.000Z,27.7
2023-04-22T04:16:00.000Z,28.4
2023-04-22T04:18:00.000Z,28.6
2023-04-22T04:19:00.000Z,28.7
2023-04-22T04:20:00.000Z,29.3
2023-04-22T04:21:00.000Z,29.8
2023-04-22T04:23:00.000Z,30.7
2023-04-22T04:24:00.000Z,30.3
2023-04-22T04:25:00.000Z,29.0
2023-04-22T04:26:00.000Z,28.9
2023-04-22T04:27:00.000Z,28.1
2023-04-22T04:28:00.000Z,28.4
2023-04-22T04:29:00.000Z,27.8
2023-04-22T04:30:00.000Z,27.5
2023-04-22T04:31:00.000Z,27.4
2023-04-22T04:32:00.000Z,26.6
2023-04-22T04:33:00.000Z,25.7
2023-04-22T04:34:00.000Z,26.4
2023-04-22T04:35:00.000Z,27.2
2023-04-22T04:36:00.000Z,27.8
2023-04-22T04:37:00.000Z,27.7
2023-04-22T04:38:00.000Z,28.5
2023-04-22T04:39:00.000Z,27.7
2023-04-22T04:40:00.000Z,28.0
2023-04-22T04:41:00.000Z,28.3
2023-04-22T04:42:00.000Z,30.8
2023-04-22T04:43:00.000Z,31.2
2023-04-22T04:44:00.000Z,31.1
2023-04-22T04:45:00.000Z,31.1
2023-04-22T04:46:00.000Z,30.0
2023-04-22T04:47:00.000Z,30.7
2023-04-22T04:48:00.000Z,29.9
2023-04-22T04:49:00.000Z,28.4
2023-04-22T04:50:00.000Z,26.5
2023-04-22T04:51:00.000Z,24.9
2023-04-22T04:52:00.000Z,23.9
2023-04-22T04:53:00.000Z,23.8
2023-04-22T04:54:00.000Z,24.7
2023-04-22T04:55:00.000Z,25.4
2023-04-22T04:56:00.000Z,26.0
2023-04-22T04:58:00.000Z,26.5
2023-04-22T04:59:00.000Z,27.0
2023-04-22T05:00:00.000Z,26.7
2023-04-22T05:01:00.000Z,26.6
2023-04-22T05:03:00.000Z,27.1
2023-04-22T05:04:00.000Z,26.8
2023-04-22T05:05:00.000Z,26.0
2023-04-22T05:06:00.000Z,25.9
2023-04-22T05:08:00.000Z,25.8
2023-04-22T05:09:00.000Z,26.4
2023-04-22T05:10:00.000Z,26.6
2023-04-22T05:11:00.000Z,27.3
2023-04-22T05:12:00.000Z,27.8
2023-04-22T05:13:00.000Z,31.5
2023-04-22T05:14:00.000Z,30.7
2023-04-22T05:15:00.000Z,31.2
2023-04-22T05:16:00.000Z,30.0
2023-04-22T05:17:00.000Z,29.5
2023-04-22T05:18:00.000Z,28.7
2023-04-22T05:19:00.000Z,27.6
2023-04-22T05:20:00.000Z,25.6
2023-04-22T05:21:00.000Z,25.4
2023-04-22T05:22:00.000Z,25.6
2023-04-22T05:23:00.000Z,25.8
2023-04-22T05:24:00.000Z,24.1
2023-04-22T05:25:00.000Z,23.5
2023-04-22T05:26:00.000Z,23.5
2023-04-22T05:27:00.000Z,24.0
2023-04-22T05:28:00.000Z,24.0
2023-04-22T05:29:00.000Z,23.6
2023-04-22T05:30:00.000Z,24.3
2023-04-22T05:31:00.000Z,25.1
2023-04-22T05:32:00.000Z,26.2
2023-04-22T05:33:00.000Z,27.1
2023-04-22T05:34:00.000Z,26.7
2023-04-22T05:35:00.000Z,25.6
2023-04-22T05:36:00.000Z,24.6
2023-04-22T05:37:00.000Z,24.5
2023-04-22T05:38:00.000Z,25.2
2023-04-22T05:39:00.000Z,25.8
2023-04-22T05:40:00.000Z,26.0
2023-04-22T05:41:00.000Z,25.0
2023-04-22T05:43:00.000Z,24.5
2023-04-22T05:44:00.000Z,24.3
2023-04-22T05:45:00.000Z,24.0
2023-04-22T05:46:00.000Z,24.7
2023-04-22T05:47:00.000Z,24.8
2023-04-22T05:48:00.000Z,25.0
2023-04-22T05:49:00.000Z,25.1
2023-04-22T05:50:00.000Z,25.3
2023-04-22T05:51:00.000Z,26.0
2023-04-22T05:52:00.000Z,26.3
2023-04-22T05:53:00.000Z,25.9
2023-04-22T05:54:00.000Z,25.7
2023-04-22T05:55:00.000Z,24.9
2023-04-22T05:56:00.000Z,24.0
2023-04-22T05:57:00.000Z,24.6
2023-04-22T05:58:00.000Z,23.7
2023-04-22T05:59:00.000Z,24.5
2023-04-22T06:00:00.000Z,23.9
2023-04-22T06:01:00.000Z,23.2
2023-04-22T06:02:00.000Z,21.8
2023-04-22T06:03:00.000Z,21.5
2023-04-22T06:04:00.000Z,21.8
2023-04-22T06:05:00.000Z,22.5
2023-04-22T06:06:00.000Z,23.1
2023-04-22T06:07:00.000Z,23.8
2023-04-22T06:08:00.000Z,24.8
2023-04-22T06:09:00.000Z,24.6
2023-04-22T06:10:00.000Z,24.3
2023-04-22T06:11:00.000Z,23.2
2023-04-22T06:12:00.000Z,23.5
2023-04-22T06:13:00.000Z,23.1
2023-04-22T06:14:00.000Z,23.0
2023-04-22T06:15:00.000Z,23.2
2023-04-22T06:17:00.000Z,23.1
2023-04-22T06:18:00.000Z,22.6
2023-04-22T06:19:00.000Z,22.3
2023-04-22T06:20:00.000Z,22.1
2023-04-22T06:21:00.000Z,21.1
2023-04-22T06:22:00.000Z,20.7
2023-04-22T06:23:00.000Z,20.6
2023-04-22T06:24:00.000Z,20.4
2023-04-22T06:25:00.000Z,20.7
2023-04-22T06:26:00.000Z,21.2
2023-04-22T06:27:00.000Z,21.3
2023-04-22T06:28:00.000Z,20.9
2023-04-22T06:29:00.000Z,21.2
2023-04-22T06:30:00.000Z,21.3
2023-04-22T06:31:00.000Z,21.8
2023-04-22T06:32:00.000Z,22.0
2023-04-22T06:33:00.000Z,22.6
2023-04-22T06:34:00.000Z,22.9
2023-04-22T06:35:00.000Z,25.5
2023-04-22T06:36:00.000Z,25.1
2023-04-22T06:37:00.000Z,25.4
2023-04-22T06:38:00.000Z,23.6
2023-04-22T06:39:00.000Z,22.5
2023-04-22T06:40:00.000Z,22.8
2023-04-22T06:41:00.000Z,22.9
2023-04-22T06:42:00.000Z,23.6
2023-04-22T06:43:00.000Z,24.0
2023-04-22T06:44:00.000Z,23.5
2023-04-22T06:45:00.000Z,23.3
2023-04-22T06:46:00.000Z,23.5
2023-04-22T06:47:00.000Z,23.6
2023-04-22T06:48:00.000Z,23.8
2023-04-22T06:49:00.000Z,23.3
2023-04-22T06:50:00.000Z,23.1
2023-04-22T06:51:00.000Z,22.6
2023-04-22T06:52:00.000Z,21.9
2023-04-22T06:53:00.000Z,21.9
2023-04-22T06:54:00.000Z,22.2
2023-04-22T06:55:00.000Z,22.3
2023-04-22T06:56:00.000Z,22.1
2023-04-22T06:57:00.000Z,22.1
2023-04-22T06:58:00.000Z,21.7
2023-04-22T06:59:00.000Z,20.4
2023-04-22T07:00:00.000Z,19.9
2023-04-22T07:01:00.000Z,20.3
2023-04-22T07:02:00.000Z,20.0
2023-04-22T07:03:00.000Z,19.9
2023-04-22T07:04:00.000Z,19.7
2023-04-22T07:05:00.000Z,20.1
2023-04-22T07:06:00.000Z,19.9
2023-04-22T07:07:00.000Z,20.0
2023-04-22T07:08:00.000Z,20.4
2023-04-22T07:09:00.000Z,20.6
2023-04-22T07:10:00.000Z,20.8
2023-04-22T07:11:00.000Z,20.5
2023-04-22T07:12:00.000Z,20.7
2023-04-22T07:13:00.000Z,20.6
2023-04-22T07:14:00.000Z,20.6
2023-04-22T07:15:00.000Z,20.1
2023-04-22T07:16:00.000Z,19.1
2023-04-22T07:17:00.000Z,17.6
2023-04-22T07:18:00.000Z,17.5
2023-04-22T07:19:00.000Z,17.6
2023-04-22T07:20:00.000Z,18.2
2023-04-22T07:21:00.000Z,18.7
2023-04-22T07:22:00.000Z,19.5
2023-04-22T07:23:00.000Z,19.9
2023-04-22T07:24:00.000Z,20.1
2023-04-22T07:25:00.000Z,19.9
2023-04-22T07:26:00.000Z,19.8
2023-04-22T07:27:00.000Z,19.7
2023-04-22T07:28:00.000Z,20.0
2023-04-22T07:29:00.000Z,20.3
2023-04-22T07:30:00.000Z,20.4
2023-04-22T07:31:00.000Z,20.1
2023-04-22T07:32:00.000Z,19.9
2023-04-22T07:33:00.000Z,20.0
2023-04-22T07:34:00.000Z,19.5
2023-04-22T07:35:00.000Z,19.5
2023-04-22T07:36:00.000Z,18.7
2023-04-22T07:37:00.000Z,18.8
2023-04-22T07:38:00.000Z,18.8
2023-04-22T07:39:00.000Z,19.2
2023-04-22T07:40:00.000Z,19.6
2023-04-22T07:41:00.000Z,20.4
2023-04-22T07:42:00.000Z,19.8
2023-04-22T07:43:00.000Z,19.8
2023-04-22T07:44:00.000Z,19.9
2023-04-22T07:45:00.000Z,20.6
2023-04-22T07:46:00.000Z,20.6
2023-04-22T07:47:00.000Z,20.7
2023-04-22T07:48:00.000Z,20.8
2023-04-22T07:49:00.000Z,21.1
2023-04-22T07:50:00.000Z,21.6
2023-04-22T07:51:00.000Z,22.4
2023-04-22T07:52:00.000Z,22.3
2023-04-22T07:53:00.000Z,21.7
2023-04-22T07:54:00.000Z,20.8
2023-04-22T07:55:00.000Z,20.8
2023-04-22T07:56:00.000Z,20.8
2023-04-22T07:57:00.000Z,20.5
2023-04-22T07:58:00.000Z,20.1
2023-04-22T07:59:00.000Z,19.1
2023-04-22T08:00:00.000Z,18.2
2023-04-22T08:01:00.000Z,18.0
2023-04-22T08:02:00.000Z,18.0
2023-04-22T08:03:00.000Z,18.6
2023-04-22T08:04:00.000Z,19.2
2023-04-22T08:05:00.000Z,19.4
2023-04-22T08:06:00.000Z,19.7
2023-04-22T08:07:00.000Z,19.8
2023-04-22T08:08:00.000Z,19.9
2023-04-22T08:09:00.000Z,20.4
2023-04-22T08:10:00.000Z,20.9
2023-04-22T08:11:00.000Z,21.0
2023-04-22T08:12:00.000Z,21.1
2023-04-22T08:13:00.000Z,20.6
2023-04-22T08:14:00.000Z,20.0
2023-04-22T08:15:00.000Z,19.8
2023-04-22T08:16:00.000Z,20.2
2023-04-22T08:17:00.000Z,20.3
2023-04-22T08:18:00.000Z,20.3
2023-04-22T08:19:00.000Z,20.1
2023-04-22T08:20:00.000Z,19.8
2023-04-22T08:21:00.000Z,19.1
2023-04-22T08:22:00.000Z,19.3
2023-04-22T08:23:00.000Z,19.5
2023-04-22T08:24:00.000Z,20.7
2023-04-22T08:25:00.000Z,21.3
2023-04-22T08:26:00.000Z,22.3
2023-04-22T08:27:00.000Z,21.4
2023-04-22T08:28:00.000Z,21.0
2023-04-22T08:29:00.000Z,20.2
2023-04-22T08:30:00.000Z,20.1
2023-04-22T08:31:00.000Z,20.5
2023-04-22T08:32:00.000Z,20.6
2023-04-22T08:33:00.000Z,20.8
2023-04-22T08:34:00.000Z,20.7
2023-04-22T08:35:00.000Z,20.5
2023-04-22T08:36:00.000Z,20.6
2023-04-22T08:37:00.000Z,20.7
2023-04-22T08:38:00.000Z,20.3
2023-04-22T08:39:00.000Z,19.9
2023-04-22T08:40:00.000Z,18.5
2023-04-22T08:41:00.000Z,18.1
2023-04-22T08:42:00.000Z,18.5
2023-04-22T08:43:00.000Z,18.8
2023-04-22T08:44:00.000Z,19.4
2023-04-22T08:45:00.000Z,19.3
2023-04-22T08:46:00.000Z,19.2
2023-04-22T08:47:00.000Z,19.4
2023-04-22T08:48:00.000Z,19.6
2023-04-22T08:49:00.000Z,20.1
2023-04-22T08:50:00.000Z,20.5
2023-04-22T08:51:00.000Z,20.2
2023-04-22T08:52:00.000Z,19.0
2023-04-22T08:53:00.000Z,17.9
2023-04-22T08:54:00.000Z,18.8
2023-04-22T08:55:00.000Z,19.0
2023-04-22T08:56:00.000Z,19.5
2023-04-22T08:57:00.000Z,19.6
2023-04-22T08:58:00.000Z,20.3
2023-04-22T08:59:00.000Z,20.5
2023-04-22T09:00:00.000Z,20.5
2023-04-22T09:01:00.000Z,20.1
2023-04-22T09:02:00.000Z,20.3
2023-04-22T09:03:00.000Z,20.6
2023-04-22T09:04:00.000Z,21.1
2023-04-22T09:05:00.000Z,20.8
2023-04-22T09:06:00.000Z,20.8
2023-04-22T09:07:00.000Z,20.1
2023-04-22T09:08:00.000Z,19.1
2023-04-22T09:09:00.000Z,18.6
2023-04-22T09:10:00.000Z,19.1
2023-04-22T09:11:00.000Z,19.9
2023-04-22T09:12:00.000Z,21.0
2023-04-22T09:13:00.000Z,21.6
2023-04-22T09:14:00.000Z,22.1
2023-04-22T09:15:00.000Z,22.3
2023-04-22T09:16:00.000Z,22.1
2023-04-22T09:17:00.000Z,21.4
2023-04-22T09:18:00.000Z,21.2
2023-04-22T09:19:00.000Z,21.1
2023-04-22T09:20:00.000Z,20.8
2023-04-22T09:21:00.000Z,21.1
2023-04-22T09:22:00.000Z,21.2
2023-04-22T09:23:00.000Z,21.1
2023-04-22T09:24:00.000Z,19.7
2023-04-22T09:25:00.000Z,19.7
2023-04-22T09:26:00.000Z,20.6
2023-04-22T09:27:00.000Z,21.2
2023-04-22T09:28:00.000Z,21.7
2023-04-22T09:29:00.000Z,21.5
2023-04-22T09:30:00.000Z,21.4
2023-04-22T09:31:00.000Z,21.6
2023-04-22T09:32:00.000Z,22.3
2023-04-22T09:33:00.000Z,22.3
2023-04-22T09:34:00.000Z,22.2
2023-04-22T09:35:00.000Z,21.8
2023-04-22T09:36:00.000Z,21.7
2023-04-22T09:37:00.000Z,20.4
2023-04-22T09:38:00.000Z,19.8
2023-04-22T09:39:00.000Z,19.8
2023-04-22T09:40:00.000Z,20.7
2023-04-22T09:41:00.000Z,21.4
2023-04-22T09:42:00.000Z,21.6
2023-04-22T09:43:00.000Z,21.3
2023-04-22T09:44:00.000Z,21.6
2023-04-22T09:45:00.000Z,22.2
2023-04-22T09:46:00.000Z,22.6
2023-04-22T09:47:00.000Z,22.3
2023-04-22T09:48:00.000Z,21.0
2023-04-22T09:49:00.000Z,20.5
2023-04-22T09:50:00.000Z,20.3
2023-04-22T09:51:00.000Z,19.6
2023-04-22T09:52:00.000Z,19.2
2023-04-22T09:53:00.000Z,19.7
2023-04-22T09:54:00.000Z,20.7
2023-04-22T09:55:00.000Z,21.9
2023-04-22T09:56:00.000Z,22.3
2023-04-22T09:57:00.000Z,23.0
2023-04-22T09:58:00.000Z,23.3
2023-04-22T09:59:00.000Z,24.1
2023-04-22T10:00:00.000Z,24.8
2023-04-22T10:01:00.000Z,24.6
2023-04-22T10:02:00.000Z,24.8
2023-04-22T10:03:00.000Z,24.7
2023-04-22T10:04:00.000Z,24.7
2023-04-22T10:05:00.000Z,22.2
2023-04-22T10:06:00.000Z,21.3
2023-04-22T10:07:00.000Z,21.7
2023-04-22T10:08:00.000Z,22.4
2023-04-22T10:09:00.000Z,23.0
2023-04-22T10:10:00.000Z,23.6
2023-04-22T10:11:00.000Z,24.1
2023-04-22T10:12:00.000Z,23.7
2023-04-22T10:13:00.000Z,23.9
2023-04-22T10:14:00.000Z,23.3
2023-04-22T10:15:00.000Z,23.1
2023-04-22T10:16:00.000Z,21.9
2023-04-22T10:17:00.000Z,20.6
2023-04-22T10:18:00.000Z,22.0
2023-04-22T10:19:00.000Z,23.1
2023-04-22T10:20:00.000Z,23.2
2023-04-22T10:21:00.000Z,22.2
2023-04-22T10:22:00.000Z,22.7
2023-04-22T10:23:00.000Z,23.5
2023-04-22T10:24:00.000Z,24.3
2023-04-22T10:25:00.000Z,24.1
2023-04-22T10:26:00.000Z,23.8
2023-04-22T10:27:00.000Z,23.9
2023-04-22T10:28:00.000Z,22.2
2023-04-22T10:29:00.000Z,20.8
2023-04-22T10:30:00.000Z,20.8
2023-04-22T10:31:00.000Z,21.9
2023-04-22T10:32:00.000Z,22.3
2023-04-22T10:34:00.000Z,22.8
2023-04-22T10:35:00.000Z,22.1
2023-04-22T10:36:00.000Z,21.8
2023-04-22T10:37:00.000Z,21.7
2023-04-22T10:39:00.000Z,21.2
2023-04-22T10:40:00.000Z,21.7
2023-04-22T10:42:00.000Z,23.0
2023-04-22T10:43:00.000Z,22.6
2023-04-22T10:44:00.000Z,23.3
2023-04-22T10:45:00.000Z,22.8
2023-04-22T10:47:00.000Z,21.8
2023-04-22T10:49:00.000Z,22.3
2023-04-22T10:50:00.000Z,22.9
2023-04-22T10:52:00.000Z,22.5
2023-04-22T10:53:00.000Z,21.4
2023-04-22T10:54:00.000Z,22.0
2023-04-22T10:55:00.000Z,22.3
2023-04-22T10:56:00.000Z,22.6
2023-04-22T10:57:00.000Z,22.5
2023-04-22T10:58:00.000Z,23.1
2023-04-22T10:59:00.000Z,22.7
2023-04-22T11:00:00.000Z,22.8
2023-04-22T11:01:00.000Z,22.4
2023-04-22T11:02:00.000Z,22.3
2023-04-22T11:03:00.000Z,21.8
2023-04-22T11:05:00.000Z,21.9
2023-04-22T11:06:00.000Z,22.2
2023-04-22T11:07:00.000Z,22.4
2023-04-22T11:08:00.000Z,22.1
2023-04-22T11:09:00.000Z,22.5
2023-04-22T11:10:00.000Z,22.6
2023-04-22T11:11:00.000Z,22.6
2023-04-22T11:13:00.000Z,22.0
2023-04-22T11:14:00.000Z,22.1
2023-04-22T11:15:00.000Z,22.1
2023-04-22T11:16:00.000Z,22.2
2023-04-22T11:17:00.000Z,21.9
2023-04-22T11:18:00.000Z,22.0
2023-04-22T11:19:00.000Z,22.1
2023-04-22T11:20:00.000Z,22.4
2023-04-22T11:21:00.000Z,22.0
2023-04-22T11:23:00.000Z,21.7
2023-04-22T11:24:00.000Z,21.8
2023-04-22T11:25:00.000Z,21.6
2023-04-22T11:26:00.000Z,22.0
2023-04-22T11:27:00.000Z,22.0
2023-04-22T11:28:00.000Z,21.7
2023-04-22T11:29:00.000Z,22.0
2023-04-22T11:30:00.000Z,21.9
2023-04-22T11:31:00.000Z,22.2
2023-04-22T11:33:00.000Z,22.0
2023-04-22T11:34:00.000Z,21.9
2023-04-22T11:35:00.000Z,21.8
2023-04-22T11:36:00.000Z,22.5
2023-04-22T11:37:00.000Z,22.2
2023-04-22T11:38:00.000Z,22.5
2023-04-22T11:39:00.000Z,22.0
2023-04-22T11:41:00.000Z,21.3
2023-04-22T11:42:00.000Z,20.9
2023-04-22T11:43:00.000Z,21.2
2023-04-22T11:44:00.000Z,21.8
2023-04-22T11:45:00.000Z,22.4
2023-04-22T11:46:00.000Z,22.6
2023-04-22T11:47:00.000Z,22.8
2023-04-22T11:48:00.000Z,22.5
2023-04-22T11:49:00.000Z,22.8
2023-04-22T11:50:00.000Z,22.8
2023-04-22T11:51:00.000Z,22.3
2023-04-22T11:52:00.000Z,22.7
2023-04-22T11:53:00.000Z,22.7
2023-04-22T11:54:00.000Z,24.0
2023-04-22T11:55:00.000Z,23.5
2023-04-22T11:56:00.000Z,23.5
2023-04-22T11:57:00.000Z,22.3
2023-04-22T11:58:00.000Z,21.6
2023-04-22T11:59:00.000Z,21.4
2023-04-22T12:00:00.000Z,21.7
2023-04-22T12:01:00.000Z,22.1
2023-04-22T12:02:00.000Z,22.4
2023-04-22T12:03:00.000Z,22.3
2023-04-22T12:04:00.000Z,22.3
2023-04-22T12:05:00.000Z,22.5
2023-04-22T12:06:00.000Z,22.6
2023-04-22T12:07:00.000Z,22.4
2023-04-22T12:08:00.000Z,22.5
2023-04-22T12:09:00.000Z,22.5
2023-04-22T12:10:00.000Z,22.8
2023-04-22T12:11:00.000Z,23.0
2023-04-22T12:12:00.000Z,23.2
2023-04-22T12:13:00.000Z,23.4
2023-04-22T12:14:00.000Z,23.2
2023-04-22T12:15:00.000Z,22.9
2023-04-22T12:16:00.000Z,23.2
2023-04-22T12:17:00.000Z,22.9
2023-04-22T12:18:00.000Z,22.6
2023-04-22T12:19:00.000Z,22.2
2023-04-22T12:20:00.000Z,21.9
2023-04-22T12:21:00.000Z,21.8
2023-04-22T12:22:00.000Z,21.8
2023-04-22T12:23:00.000Z,21.9
2023-04-22T12:24:00.000Z,22.4
2023-04-22T12:25:00.000Z,22.9
2023-04-22T12:26:00.000Z,23.4
2023-04-22T12:27:00.000Z,23.3
2023-04-22T12:28:00.000Z,23.4
2023-04-22T12:29:00.000Z,23.0
2023-04-22T12:30:00.000Z,23.0
2023-04-22T12:31:00.000Z,23.1
2023-04-22T12:32:00.000Z,22.5
2023-04-22T12:33:00.000Z,22.5
2023-04-22T12:34:00.000Z,22.6
2023-04-22T12:35:00.000Z,23.2
2023-04-22T12:36:00.000Z,23.6
2023-04-22T12:37:00.000Z,23.9
2023-04-22T12:38:00.000Z,24.0
2023-04-22T12:39:00.000Z,23.5
2023-04-22T12:40:00.000Z,23.1
2023-04-22T12:41:00.000Z,22.2
2023-04-22T12:42:00.000Z,22.5
2023-04-22T12:43:00.000Z,22.5
2023-04-22T12:44:00.000Z,22.7
2023-04-22T12:45:00.000Z,22.5
2023-04-22T12:46:00.000Z,22.9
2023-04-22T12:47:00.000Z,23.7
2023-04-22T12:48:00.000Z,24.2
2023-04-22T12:49:00.000Z,25.0
2023-04-22T12:50:00.000Z,23.7
2023-04-22T12:51:00.000Z,22.9
2023-04-22T12:52:00.000Z,21.7
2023-04-22T12:53:00.000Z,21.2
2023-04-22T12:54:00.000Z,21.0
2023-04-22T12:55:00.000Z,21.4
2023-04-22T12:56:00.000Z,21.8
2023-04-22T12:57:00.000Z,22.1
2023-04-22T12:58:00.000Z,22.2
2023-04-22T12:59:00.000Z,22.3
2023-04-22T13:00:00.000Z,22.2
2023-04-22T13:01:00.000Z,21.8
2023-04-22T13:02:00.000Z,21.7
2023-04-22T13:03:00.000Z,22.2
2023-04-22T13:04:00.000Z,22.9
2023-04-22T13:05:00.000Z,23.1
2023-04-22T13:06:00.000Z,22.8
2023-04-22T13:07:00.000Z,23.1
2023-04-22T13:08:00.000Z,23.6
2023-04-22T13:09:00.000Z,24.4
2023-04-22T13:10:00.000Z,24.8
2023-04-22T13:11:00.000Z,24.5
2023-04-22T13:12:00.000Z,24.2
2023-04-22T13:13:00.000Z,24.0
2023-04-22T13:14:00.000Z,24.4
2023-04-22T13:15:00.000Z,24.3
2023-04-22T13:16:00.000Z,25.1
2023-04-22T13:17:00.000Z,25.0
2023-04-22T13:18:00.000Z,25.0
2023-04-22T13:19:00.000Z,24.9
2023-04-22T13:20:00.000Z,25.1
2023-04-22T13:21:00.000Z,24.8
2023-04-22T13:22:00.000Z,24.5
2023-04-22T13:23:00.000Z,24.5
2023-04-22T13:24:00.000Z,24.4
2023-04-22T13:25:00.000Z,24.1
2023-04-22T13:26:00.000Z,24.2
2023-04-22T13:27:00.000Z,24.1
2023-04-22T13:28:00.000Z,24.5
2023-04-22T13:29:00.000Z,24.3
2023-04-22T13:30:00.000Z,24.4
2023-04-22T13:31:00.000Z,24.1
2023-04-22T13:32:00.000Z,25.1
2023-04-22T13:33:00.000Z,24.7
2023-04-22T13:34:00.000Z,25.2
2023-04-22T13:35:00.000Z,24.7
2023-04-22T13:36:00.000Z,24.5
2023-04-22T13:37:00.000Z,24.8
2023-04-22T13:38:00.000Z,24.2
2023-04-22T13:39:00.000Z,24.4
2023-04-22T13:40:00.000Z,24.4
2023-04-22T13:41:00.000Z,24.9
2023-04-22T13:42:00.000Z,25.3
2023-04-22T13:43:00.000Z,26.7
2023-04-22T13:44:00.000Z,27.0
2023-04-22T13:45:00.000Z,27.3
2023-04-22T13:46:00.000Z,26.4
2023-04-22T13:47:00.000Z,26.5
2023-04-22T13:48:00.000Z,26.7
2023-04-22T13:49:00.000Z,26.8
2023-04-22T13:50:00.000Z,27.2
2023-04-22T13:51:00.000Z,26.9